sensor_id;sensor_type;location;lat;lon;timestamp;pressure;altitude;pressure_sealevel;temperature;humidity
68994;BME280;56054;50.968;5.816;2023-02-22T00:02:59;100666.06;;;5.47;100.00
68994;BME280;56054;50.968;5.816;2023-02-22T00:06:16;100672.25;;;5.49;100.00
68994;BME280;56054;50.968;5.816;2023-02-22T00:09:26;100660.00;;;5.46;100.00
68994;BME280;56054;50.968;5.816;2023-02-22T00:12:33;100663.34;;;5.45;100.00
68994;BME280;56054;50.968;5.816;2023-02-22T00:16:06;100671.31;;;5.48;100.00
68994;BME280;56054;50.968;5.816;2023-02-22T00:19:38;100661.28;;;5.51;100.00
68994;BME280;56054;50.968;5.816;2023-02-22T00:22:55;100660.50;;;5.52;100.00
68994;BME280;56054;50.968;5.816;2023-02-22T00:26:02;100662.28;;;5.53;100.00
68994;BME280;56054;50.968;5.816;2023-02-22T00:29:10;100662.56;;;5.56;100.00
68994;BME280;56054;50.968;5.816;2023-02-22T00:32:20;100660.72;;;5.55;100.00
68994;BME280;56054;50.968;5.816;2023-02-22T00:35:29;100653.28;;;5.48;100.00
68994;BME280;56054;50.968;5.816;2023-02-22T00:38:50;100663.06;;;5.52;100.00
68994;BME280;56054;50.968;5.816;2023-02-22T00:41:57;100662.03;;;5.50;100.00
68994;BME280;56054;50.968;5.816;2023-02-22T00:45:05;100662.03;;;5.50;100.00
68994;BME280;56054;50.968;5.816;2023-02-22T00:48:12;100660.50;;;5.52;100.00
68994;BME280;56054;50.968;5.816;2023-02-22T00:51:19;100642.06;;;5.48;100.00
68994;BME280;56054;50.968;5.816;2023-02-22T00:54:26;100654.34;;;5.40;100.00
68994;BME280;56054;50.968;5.816;2023-02-22T00:57:33;100640.66;;;5.51;100.00
68994;BME280;56054;50.968;5.816;2023-02-22T01:00:41;100648.13;;;5.48;100.00
68994;BME280;56054;50.968;5.816;2023-02-22T01:03:48;100640.38;;;5.48;100.00
68994;BME280;56054;50.968;5.816;2023-02-22T01:06:55;100640.16;;;5.45;100.00
68994;BME280;56054;50.968;5.816;2023-02-22T01:10:10;100649.81;;;5.48;100.00
68994;BME280;56054;50.968;5.816;2023-02-22T01:13:21;100638.31;;;5.54;100.00
68994;BME280;56054;50.968;5.816;2023-02-22T01:16:28;100641.53;;;5.62;100.00
68994;BME280;56054;50.968;5.816;2023-02-22T01:19:35;100641.00;;;5.66;100.00
68994;BME280;56054;50.968;5.816;2023-02-22T01:22:44;100636.50;;;5.53;100.00
68994;BME280;56054;50.968;5.816;2023-02-22T01:25:52;100638.56;;;5.57;100.00
68994;BME280;56054;50.968;5.816;2023-02-22T01:28:59;100645.69;;;5.50;100.00
68994;BME280;56054;50.968;5.816;2023-02-22T01:32:15;100643.38;;;5.43;100.00
68994;BME280;56054;50.968;5.816;2023-02-22T01:35:32;100647.22;;;5.48;100.00
68994;BME280;56054;50.968;5.816;2023-02-22T01:38:40;100642.72;;;5.45;100.00
68994;BME280;56054;50.968;5.816;2023-02-22T01:42:12;100635.50;;;5.51;100.00
68994;BME280;56054;50.968;5.816;2023-02-22T01:45:53;100630.72;;;5.56;100.00
68994;BME280;56054;50.968;5.816;2023-02-22T01:49:06;100618.72;;;5.56;100.00
68994;BME280;56054;50.968;5.816;2023-02-22T01:52:18;100625.69;;;5.57;100.00
68994;BME280;56054;50.968;5.816;2023-02-22T01:55:26;100623.63;;;5.64;100.00
68994;BME280;56054;50.968;5.816;2023-02-22T01:58:41;100629.25;;;5.70;100.00
68994;BME280;56054;50.968;5.816;2023-02-22T02:01:51;100623.44;;;5.72;100.00
68994;BME280;56054;50.968;5.816;2023-02-22T02:04:59;100611.75;;;5.66;100.00
68994;BME280;56054;50.968;5.816;2023-02-22T02:08:26;100615.09;;;5.65;100.00
68994;BME280;56054;50.968;5.816;2023-02-22T02:11:40;100611.44;;;5.73;100.00
68994;BME280;56054;50.968;5.816;2023-02-22T02:14:47;100615.59;;;5.61;100.00
68994;BME280;56054;50.968;5.816;2023-02-22T02:17:57;100613.03;;;5.71;100.00
68994;BME280;56054;50.968;5.816;2023-02-22T02:25:37;100613.78;;;5.70;100.00
68994;BME280;56054;50.968;5.816;2023-02-22T02:32:42;100618.50;;;5.43;100.00
68994;BME280;56054;50.968;5.816;2023-02-22T02:36:15;100628.56;;;5.40;100.00
68994;BME280;56054;50.968;5.816;2023-02-22T02:43:04;100614.69;;;5.28;100.00
68994;BME280;56054;50.968;5.816;2023-02-22T02:46:26;100610.50;;;5.50;100.00
68994;BME280;56054;50.968;5.816;2023-02-22T02:50:17;100598.81;;;5.33;100.00
68994;BME280;56054;50.968;5.816;2023-02-22T02:53:37;100586.22;;;5.16;100.00
68994;BME280;56054;50.968;5.816;2023-02-22T02:56:45;100581.28;;;5.40;100.00
68994;BME280;56054;50.968;5.816;2023-02-22T02:59:55;100579.41;;;5.17;100.00
68994;BME280;56054;50.968;5.816;2023-02-22T03:13:53;100577.66;;;4.64;100.00
68994;BME280;56054;50.968;5.816;2023-02-22T03:17:16;100580.84;;;4.92;100.00
68994;BME280;56054;50.968;5.816;2023-02-22T03:21:04;100578.91;;;5.10;100.00
68994;BME280;56054;50.968;5.816;2023-02-22T03:24:38;100573.56;;;4.56;100.00
68994;BME280;56054;50.968;5.816;2023-02-22T03:27:53;100562.34;;;4.76;100.00
68994;BME280;56054;50.968;5.816;2023-02-22T03:31:24;100568.91;;;4.42;100.00
68994;BME280;56054;50.968;5.816;2023-02-22T03:34:58;100558.22;;;4.88;100.00
68994;BME280;56054;50.968;5.816;2023-02-22T03:38:15;100550.41;;;4.56;100.00
68994;BME280;56054;50.968;5.816;2023-02-22T03:41:30;100554.00;;;4.68;100.00
68994;BME280;56054;50.968;5.816;2023-02-22T03:44:40;100545.63;;;4.50;100.00
68994;BME280;56054;50.968;5.816;2023-02-22T03:48:24;100547.19;;;4.59;100.00
68994;BME280;56054;50.968;5.816;2023-02-22T03:51:36;100537.25;;;4.53;100.00
68994;BME280;56054;50.968;5.816;2023-02-22T03:54:44;100524.00;;;4.48;100.00
68994;BME280;56054;50.968;5.816;2023-02-22T03:57:57;100531.22;;;4.42;100.00
68994;BME280;56054;50.968;5.816;2023-02-22T04:01:06;100524.66;;;4.46;100.00
68994;BME280;56054;50.968;5.816;2023-02-22T04:04:13;100526.97;;;4.43;100.00
68994;BME280;56054;50.968;5.816;2023-02-22T04:07:23;100534.94;;;4.46;100.00
68994;BME280;56054;50.968;5.816;2023-02-22T04:10:35;100521.97;;;4.55;100.00
68994;BME280;56054;50.968;5.816;2023-02-22T04:13:46;100522.59;;;4.52;100.00
68994;BME280;56054;50.968;5.816;2023-02-22T04:16:53;100525.69;;;4.48;100.00
68994;BME280;56054;50.968;5.816;2023-02-22T04:20:00;100521.31;;;4.47;100.00
68994;BME280;56054;50.968;5.816;2023-02-22T04:23:18;100517.31;;;4.50;100.00
68994;BME280;56054;50.968;5.816;2023-02-22T04:26:36;100518.50;;;4.54;100.00
68994;BME280;56054;50.968;5.816;2023-02-22T04:29:43;100524.50;;;4.65;100.00
68994;BME280;56054;50.968;5.816;2023-02-22T04:32:50;100517.97;;;4.48;100.00
68994;BME280;56054;50.968;5.816;2023-02-22T04:35:58;100518.50;;;4.44;100.00
68994;BME280;56054;50.968;5.816;2023-02-22T04:39:08;100501.63;;;4.47;100.00
68994;BME280;56054;50.968;5.816;2023-02-22T04:42:15;100495.97;;;4.52;100.00
68994;BME280;56054;50.968;5.816;2023-02-22T04:45:22;100493.53;;;4.43;100.00
68994;BME280;56054;50.968;5.816;2023-02-22T04:48:31;100493.69;;;4.34;100.00
68994;BME280;56054;50.968;5.816;2023-02-22T04:51:38;100489.03;;;4.40;100.00
68994;BME280;56054;50.968;5.816;2023-02-22T04:54:46;100489.53;;;4.36;100.00
68994;BME280;56054;50.968;5.816;2023-02-22T04:57:54;100479.38;;;4.38;100.00
68994;BME280;56054;50.968;5.816;2023-02-22T05:01:01;100481.56;;;4.33;100.00
68994;BME280;56054;50.968;5.816;2023-02-22T05:04:08;100479.63;;;4.41;100.00
68994;BME280;56054;50.968;5.816;2023-02-22T05:07:15;100478.50;;;4.37;100.00
68994;BME280;56054;50.968;5.816;2023-02-22T05:10:23;100478.25;;;4.34;100.00
68994;BME280;56054;50.968;5.816;2023-02-22T05:13:35;100468.31;;;4.28;100.00
68994;BME280;56054;50.968;5.816;2023-02-22T05:16:42;100464.47;;;4.23;100.00
68994;BME280;56054;50.968;5.816;2023-02-22T05:19:49;100461.25;;;4.26;100.00
68994;BME280;56054;50.968;5.816;2023-02-22T05:22:57;100461.50;;;4.19;100.00
68994;BME280;56054;50.968;5.816;2023-02-22T05:26:06;100454.97;;;4.22;100.00
68994;BME280;56054;50.968;5.816;2023-02-22T05:29:13;100441.84;;;4.19;100.00
68994;BME280;56054;50.968;5.816;2023-02-22T05:32:21;100439.56;;;4.12;100.00
68994;BME280;56054;50.968;5.816;2023-02-22T05:35:28;100431.16;;;4.04;100.00
68994;BME280;56054;50.968;5.816;2023-02-22T05:38:36;100429.63;;;4.06;100.00
68994;BME280;56054;50.968;5.816;2023-02-22T05:41:43;100438.88;;;3.94;100.00
68994;BME280;56054;50.968;5.816;2023-02-22T05:44:51;100433.75;;;3.94;100.00
68994;BME280;56054;50.968;5.816;2023-02-22T05:48:06;100429.53;;;4.05;100.00
68994;BME280;56054;50.968;5.816;2023-02-22T05:51:13;100414.59;;;3.91;100.00
68994;BME280;56054;50.968;5.816;2023-02-22T05:54:21;100429.53;;;4.05;100.00
68994;BME280;56054;50.968;5.816;2023-02-22T05:57:28;100412.78;;;4.00;100.00
68994;BME280;56054;50.968;5.816;2023-02-22T06:00:41;100416.13;;;3.99;100.00
68994;BME280;56054;50.968;5.816;2023-02-22T06:03:52;100416.38;;;4.02;100.00
68994;BME280;56054;50.968;5.816;2023-02-22T06:06:59;100402.91;;;3.84;100.00
68994;BME280;56054;50.968;5.816;2023-02-22T06:10:06;100397.13;;;3.76;100.00
68994;BME280;56054;50.968;5.816;2023-02-22T06:13:13;100398.66;;;3.84;100.00
68994;BME280;56054;50.968;5.816;2023-02-22T06:16:21;100390.97;;;4.05;100.00
68994;BME280;56054;50.968;5.816;2023-02-22T06:19:28;100396.84;;;4.04;100.00
68994;BME280;56054;50.968;5.816;2023-02-22T06:22:36;100397.38;;;3.90;100.00
68994;BME280;56054;50.968;5.816;2023-02-22T06:25:43;100399.16;;;4.11;100.00
68994;BME280;56054;50.968;5.816;2023-02-22T06:28:51;100391.31;;;3.99;100.00
68994;BME280;56054;50.968;5.816;2023-02-22T06:31:58;100399.03;;;3.79;100.00
68994;BME280;56054;50.968;5.816;2023-02-22T06:35:07;100389.81;;;3.81;100.00
68994;BME280;56054;50.968;5.816;2023-02-22T06:38:22;100398.78;;;3.86;100.00
68994;BME280;56054;50.968;5.816;2023-02-22T06:41:29;100390.94;;;3.84;100.00
68994;BME280;56054;50.968;5.816;2023-02-22T06:44:41;100389.91;;;3.82;100.00
68994;BME280;56054;50.968;5.816;2023-02-22T06:48:05;100384.78;;;3.72;100.00
68994;BME280;56054;50.968;5.816;2023-02-22T06:51:40;100389.00;;;3.82;100.00
68994;BME280;56054;50.968;5.816;2023-02-22T06:54:57;100394.16;;;3.82;100.00
68994;BME280;56054;50.968;5.816;2023-02-22T06:58:05;100396.09;;;3.84;100.00
68994;BME280;56054;50.968;5.816;2023-02-22T07:01:32;100392.75;;;3.85;100.00
68994;BME280;56054;50.968;5.816;2023-02-22T07:05:12;100396.34;;;3.88;100.00
68994;BME280;56054;50.968;5.816;2023-02-22T07:08:19;100396.84;;;3.94;100.00
68994;BME280;56054;50.968;5.816;2023-02-22T07:12:10;100390.69;;;3.92;100.00
68994;BME280;56054;50.968;5.816;2023-02-22T07:16:02;100395.06;;;3.93;100.00
68994;BME280;56054;50.968;5.816;2023-02-22T07:20:06;100390.84;;;3.93;100.00
68994;BME280;56054;50.968;5.816;2023-02-22T07:23:40;100385.03;;;4.06;100.00
68994;BME280;56054;50.968;5.816;2023-02-22T07:27:15;100397.63;;;4.13;100.00
68994;BME280;56054;50.968;5.816;2023-02-22T07:30:55;100389.63;;;4.31;100.00
68994;BME280;56054;50.968;5.816;2023-02-22T07:34:11;100387.66;;;4.38;100.00
68994;BME280;56054;50.968;5.816;2023-02-22T07:45:35;100394.19;;;4.55;100.00
68994;BME280;56054;50.968;5.816;2023-02-22T07:48:49;100398.31;;;4.53;100.00
68994;BME280;56054;50.968;5.816;2023-02-22T07:51:56;100408.47;;;4.62;100.00
68994;BME280;56054;50.968;5.816;2023-02-22T07:55:03;100400.56;;;4.70;100.00
68994;BME280;56054;50.968;5.816;2023-02-22T07:58:14;100396.22;;;4.69;100.00
68994;BME280;56054;50.968;5.816;2023-02-22T08:01:21;100394.91;;;4.75;100.00
68994;BME280;56054;50.968;5.816;2023-02-22T08:04:28;100395.28;;;4.79;100.00
68994;BME280;56054;50.968;5.816;2023-02-22T08:07:36;100393.50;;;4.78;100.00
68994;BME280;56054;50.968;5.816;2023-02-22T08:10:43;100402.59;;;4.85;100.00
68994;BME280;56054;50.968;5.816;2023-02-22T08:13:50;100387.94;;;4.84;100.00
68994;BME280;56054;50.968;5.816;2023-02-22T08:16:57;100387.44;;;4.78;100.00
68994;BME280;56054;50.968;5.816;2023-02-22T08:24:14;100385.03;;;5.01;100.00
68994;BME280;56054;50.968;5.816;2023-02-22T08:27:31;100382.16;;;5.08;100.00
68994;BME280;56054;50.968;5.816;2023-02-22T08:30:41;100389.09;;;5.09;100.00
68994;BME280;56054;50.968;5.816;2023-02-22T08:33:49;100383.41;;;5.13;100.00
68994;BME280;56054;50.968;5.816;2023-02-22T08:36:56;100387.97;;;5.06;100.00
68994;BME280;56054;50.968;5.816;2023-02-22T08:40:03;100381.66;;;5.02;100.00
68994;BME280;56054;50.968;5.816;2023-02-22T08:43:10;100391.28;;;5.15;100.00
68994;BME280;56054;50.968;5.816;2023-02-22T08:46:23;100386.13;;;5.37;100.00
68994;BME280;56054;50.968;5.816;2023-02-22T08:49:31;100387.69;;;5.35;100.00
68994;BME280;56054;50.968;5.816;2023-02-22T08:52:41;100398.50;;;5.53;100.00
68994;BME280;56054;50.968;5.816;2023-02-22T08:55:48;100386.06;;;5.47;100.00
68994;BME280;56054;50.968;5.816;2023-02-22T08:58:55;100387.66;;;5.57;100.00
68994;BME280;56054;50.968;5.816;2023-02-22T09:02:02;100379.72;;;5.54;100.00
68994;BME280;56054;50.968;5.816;2023-02-22T09:05:09;100376.16;;;5.64;100.00
68994;BME280;56054;50.968;5.816;2023-02-22T09:08:16;100377.09;;;5.76;100.00
68994;BME280;56054;50.968;5.816;2023-02-22T09:11:25;100389.47;;;5.92;100.00
68994;BME280;56054;50.968;5.816;2023-02-22T09:14:32;100384.75;;;5.86;100.00
68994;BME280;56054;50.968;5.816;2023-02-22T09:17:39;100384.16;;;6.00;100.00
68994;BME280;56054;50.968;5.816;2023-02-22T09:20:47;100381.69;;;6.14;100.00
68994;BME280;56054;50.968;5.816;2023-02-22T09:24:00;100374.31;;;6.18;100.00
68994;BME280;56054;50.968;5.816;2023-02-22T09:27:10;100373.84;;;6.24;100.00
68994;BME280;56054;50.968;5.816;2023-02-22T09:30:28;100361.53;;;6.32;100.00
68994;BME280;56054;50.968;5.816;2023-02-22T09:37:47;100357.25;;;6.56;100.00
68994;BME280;56054;50.968;5.816;2023-02-22T09:41:13;100358.94;;;6.79;100.00
68994;BME280;56054;50.968;5.816;2023-02-22T09:44:51;100345.13;;;6.90;100.00
68994;BME280;56054;50.968;5.816;2023-02-22T09:48:06;100351.56;;;7.08;100.00
68994;BME280;56054;50.968;5.816;2023-02-22T09:51:17;100351.09;;;7.14;100.00
68994;BME280;56054;50.968;5.816;2023-02-22T09:54:51;100354.09;;;7.32;100.00
68994;BME280;56054;50.968;5.816;2023-02-22T09:58:05;100349.94;;;7.34;100.00
68994;BME280;56054;50.968;5.816;2023-02-22T10:04:41;100355.00;;;7.58;100.00
68994;BME280;56054;50.968;5.816;2023-02-22T10:08:01;100357.88;;;7.62;100.00
68994;BME280;56054;50.968;5.816;2023-02-22T10:14:47;100351.22;;;7.91;100.00
68994;BME280;56054;50.968;5.816;2023-02-22T10:25:27;100358.19;;;8.57;100.00
68994;BME280;56054;50.968;5.816;2023-02-22T10:32:24;100351.31;;;8.84;100.00
68994;BME280;56054;50.968;5.816;2023-02-22T10:35:37;100348.81;;;8.86;100.00
68994;BME280;56054;50.968;5.816;2023-02-22T10:39:29;100343.00;;;8.90;100.00
68994;BME280;56054;50.968;5.816;2023-02-22T10:42:37;100349.13;;;9.18;100.00
68994;BME280;56054;50.968;5.816;2023-02-22T10:45:45;100349.47;;;9.38;100.00
68994;BME280;56054;50.968;5.816;2023-02-22T10:49:03;100351.50;;;9.57;100.00
68994;BME280;56054;50.968;5.816;2023-02-22T10:52:37;100336.88;;;10.02;100.00
68994;BME280;56054;50.968;5.816;2023-02-22T10:56:04;100337.81;;;10.02;100.00
68994;BME280;56054;50.968;5.816;2023-02-22T10:59:35;100333.25;;;10.28;100.00
68994;BME280;56054;50.968;5.816;2023-02-22T11:02:51;100328.88;;;10.42;100.00
68994;BME280;56054;50.968;5.816;2023-02-22T11:06:17;100330.72;;;10.59;100.00
68994;BME280;56054;50.968;5.816;2023-02-22T11:09:25;100321.44;;;10.79;100.00
68994;BME280;56054;50.968;5.816;2023-02-22T11:12:34;100324.84;;;10.95;100.00
68994;BME280;56054;50.968;5.816;2023-02-22T11:15:41;100318.47;;;11.04;100.00
68994;BME280;56054;50.968;5.816;2023-02-22T11:18:48;100312.16;;;11.16;100.00
68994;BME280;56054;50.968;5.816;2023-02-22T11:25:37;100309.88;;;11.38;98.25
68994;BME280;56054;50.968;5.816;2023-02-22T11:28:56;100313.06;;;11.49;99.78
68994;BME280;56054;50.968;5.816;2023-02-22T11:32:12;100311.84;;;11.59;98.23
68994;BME280;56054;50.968;5.816;2023-02-22T11:35:37;100315.47;;;11.62;99.78
68994;BME280;56054;50.968;5.816;2023-02-22T11:38:54;100305.69;;;11.74;99.32
68994;BME280;56054;50.968;5.816;2023-02-22T11:42:37;100309.97;;;12.07;97.35
68994;BME280;56054;50.968;5.816;2023-02-22T11:46:08;100316.00;;;12.06;96.34
68994;BME280;56054;50.968;5.816;2023-02-22T11:49:17;100309.81;;;12.04;96.34
68994;BME280;56054;50.968;5.816;2023-02-22T11:52:43;100318.69;;;12.07;97.34
68994;BME280;56054;50.968;5.816;2023-02-22T11:56:10;100318.59;;;12.06;98.19
68994;BME280;56054;50.968;5.816;2023-02-22T11:59:34;100308.47;;;12.12;98.60
68994;BME280;56054;50.968;5.816;2023-02-22T12:06:26;100301.97;;;12.20;99.08
68994;BME280;56054;50.968;5.816;2023-02-22T12:13:50;100301.22;;;12.58;98.50
68994;BME280;56054;50.968;5.816;2023-02-22T12:17:13;100304.88;;;12.62;100.00
68994;BME280;56054;50.968;5.816;2023-02-22T12:20:50;100309.56;;;12.69;99.99
68994;BME280;56054;50.968;5.816;2023-02-22T12:24:01;100314.31;;;12.60;98.47
68994;BME280;56054;50.968;5.816;2023-02-22T12:27:14;100304.66;;;12.75;98.02
68994;BME280;56054;50.968;5.816;2023-02-22T12:30:34;100303.16;;;12.80;97.73
68994;BME280;56054;50.968;5.816;2023-02-22T12:41:04;100300.09;;;13.09;96.43
68994;BME280;56054;50.968;5.816;2023-02-22T12:44:17;100299.00;;;13.23;96.76
68994;BME280;56054;50.968;5.816;2023-02-22T12:47:34;100295.50;;;13.22;96.14
68994;BME280;56054;50.968;5.816;2023-02-22T12:50:43;100298.56;;;13.14;97.85
68994;BME280;56054;50.968;5.816;2023-02-22T12:54:20;100294.41;;;13.17;96.43
68994;BME280;56054;50.968;5.816;2023-02-22T13:04:09;100283.13;;;13.18;95.63
68994;BME280;56054;50.968;5.816;2023-02-22T13:15:13;100295.72;;;12.90;98.97
68994;BME280;56054;50.968;5.816;2023-02-22T13:27:18;100302.56;;;12.68;97.42
68994;BME280;56054;50.968;5.816;2023-02-22T13:45:30;100293.75;;;12.48;100.00
68994;BME280;56054;50.968;5.816;2023-02-22T13:49:00;100282.75;;;12.36;100.00
68994;BME280;56054;50.968;5.816;2023-02-22T13:52:15;100293.16;;;12.36;100.00
68994;BME280;56054;50.968;5.816;2023-02-22T13:55:30;100295.34;;;12.45;100.00
68994;BME280;56054;50.968;5.816;2023-02-22T13:59:00;100290.94;;;12.43;100.00
68994;BME280;56054;50.968;5.816;2023-02-22T14:03:17;100294.69;;;12.49;100.00
68994;BME280;56054;50.968;5.816;2023-02-22T14:06:09;100290.22;;;12.46;100.00
68994;BME280;56054;50.968;5.816;2023-02-22T14:09:41;100300.47;;;12.43;100.00
68994;BME280;56054;50.968;5.816;2023-02-22T14:12:49;100296.88;;;12.41;100.00
68994;BME280;56054;50.968;5.816;2023-02-22T14:20:26;100307.16;;;12.20;100.00
68994;BME280;56054;50.968;5.816;2023-02-22T14:23:50;100316.09;;;12.25;100.00
68994;BME280;56054;50.968;5.816;2023-02-22T14:27:01;100311.91;;;12.29;100.00
68994;BME280;56054;50.968;5.816;2023-02-22T14:30:23;100308.28;;;12.25;100.00
68994;BME280;56054;50.968;5.816;2023-02-22T14:37:13;100303.53;;;12.34;100.00
68994;BME280;56054;50.968;5.816;2023-02-22T14:40:29;100309.84;;;12.21;100.00
68994;BME280;56054;50.968;5.816;2023-02-22T14:43:41;100322.25;;;12.09;100.00
68994;BME280;56054;50.968;5.816;2023-02-22T14:47:04;100308.84;;;12.02;100.00
68994;BME280;56054;50.968;5.816;2023-02-22T14:50:47;100319.59;;;11.91;100.00
68994;BME280;56054;50.968;5.816;2023-02-22T14:54:14;100316.78;;;11.87;100.00
68994;BME280;56054;50.968;5.816;2023-02-22T15:00:45;100328.38;;;11.77;100.00
68994;BME280;56054;50.968;5.816;2023-02-22T15:03:52;100318.56;;;11.71;100.00
68994;BME280;56054;50.968;5.816;2023-02-22T15:07:08;100326.28;;;11.70;100.00
68994;BME280;56054;50.968;5.816;2023-02-22T15:10:59;100322.78;;;11.69;100.00
68994;BME280;56054;50.968;5.816;2023-02-22T15:14:01;100319.19;;;11.67;100.00
68994;BME280;56054;50.968;5.816;2023-02-22T15:17:19;100325.25;;;11.66;100.00
68994;BME280;56054;50.968;5.816;2023-02-22T15:20:27;100317.97;;;11.61;100.00
68994;BME280;56054;50.968;5.816;2023-02-22T15:27:03;100318.41;;;11.52;100.00
68994;BME280;56054;50.968;5.816;2023-02-22T15:30:25;100316.41;;;11.46;100.00
68994;BME280;56054;50.968;5.816;2023-02-22T15:33:40;100327.59;;;11.45;100.00
68994;BME280;56054;50.968;5.816;2023-02-22T15:36:47;100327.28;;;11.39;100.00
68994;BME280;56054;50.968;5.816;2023-02-22T15:40:12;100326.22;;;11.35;100.00
68994;BME280;56054;50.968;5.816;2023-02-22T15:43:21;100328.75;;;11.34;100.00
68994;BME280;56054;50.968;5.816;2023-02-22T15:46:30;100328.91;;;11.37;100.00
68994;BME280;56054;50.968;5.816;2023-02-22T15:49:37;100330.53;;;11.35;100.00
68994;BME280;56054;50.968;5.816;2023-02-22T15:53:07;100321.44;;;11.27;100.00
68994;BME280;56054;50.968;5.816;2023-02-22T15:56:26;100329.13;;;11.25;100.00
68994;BME280;56054;50.968;5.816;2023-02-22T15:59:56;100335.06;;;11.23;100.00
68994;BME280;56054;50.968;5.816;2023-02-22T16:03:16;100337.00;;;11.10;100.00
68994;BME280;56054;50.968;5.816;2023-02-22T16:09:47;100336.59;;;11.03;100.00
68994;BME280;56054;50.968;5.816;2023-02-22T16:19:34;100346.78;;;10.83;100.00
68994;BME280;56054;50.968;5.816;2023-02-22T16:22:44;100348.59;;;10.69;100.00
68994;BME280;56054;50.968;5.816;2023-02-22T16:26:27;100346.00;;;10.69;100.00
68994;BME280;56054;50.968;5.816;2023-02-22T16:29:36;100349.06;;;10.62;100.00
68994;BME280;56054;50.968;5.816;2023-02-22T16:32:43;100347.28;;;10.61;100.00
68994;BME280;56054;50.968;5.816;2023-02-22T16:35:50;100348.06;;;10.60;100.00
68994;BME280;56054;50.968;5.816;2023-02-22T16:38:58;100348.91;;;10.59;100.00
68994;BME280;56054;50.968;5.816;2023-02-22T16:42:05;100353.72;;;10.53;100.00
68994;BME280;56054;50.968;5.816;2023-02-22T16:45:18;100362.97;;;10.48;100.00
68994;BME280;56054;50.968;5.816;2023-02-22T16:48:29;100361.19;;;10.47;100.00
68994;BME280;56054;50.968;5.816;2023-02-22T16:51:46;100362.19;;;10.34;100.00
68994;BME280;56054;50.968;5.816;2023-02-22T16:54:56;100368.88;;;10.31;100.00
68994;BME280;56054;50.968;5.816;2023-02-22T16:58:04;100364.81;;;10.21;100.00
68994;BME280;56054;50.968;5.816;2023-02-22T17:01:11;100365.53;;;10.18;100.00
68994;BME280;56054;50.968;5.816;2023-02-22T17:04:22;100366.38;;;10.17;100.00
68994;BME280;56054;50.968;5.816;2023-02-22T17:07:30;100370.19;;;10.09;100.00
68994;BME280;56054;50.968;5.816;2023-02-22T17:10:37;100371.63;;;10.04;100.00
68994;BME280;56054;50.968;5.816;2023-02-22T17:13:44;100378.53;;;10.03;100.00
68994;BME280;56054;50.968;5.816;2023-02-22T17:16:51;100387.56;;;10.10;100.00
68994;BME280;56054;50.968;5.816;2023-02-22T17:20:06;100384.69;;;10.05;100.00
68994;BME280;56054;50.968;5.816;2023-02-22T17:23:13;100384.44;;;10.01;100.00
68994;BME280;56054;50.968;5.816;2023-02-22T17:26:21;100382.19;;;10.07;100.00
68994;BME280;56054;50.968;5.816;2023-02-22T17:29:32;100387.03;;;10.01;100.00
68994;BME280;56054;50.968;5.816;2023-02-22T17:32:41;100389.22;;;9.95;100.00
68994;BME280;56054;50.968;5.816;2023-02-22T17:35:57;100386.38;;;9.90;100.00
68994;BME280;56054;50.968;5.816;2023-02-22T17:39:05;100395.84;;;9.90;100.00
68994;BME280;56054;50.968;5.816;2023-02-22T17:42:12;100392.28;;;9.88;100.00
68994;BME280;56054;50.968;5.816;2023-02-22T17:45:22;100398.44;;;9.90;100.00
68994;BME280;56054;50.968;5.816;2023-02-22T17:48:31;100401.75;;;9.87;100.00
68994;BME280;56054;50.968;5.816;2023-02-22T17:51:39;100401.47;;;9.82;100.00
68994;BME280;56054;50.968;5.816;2023-02-22T17:54:46;100417.72;;;9.93;100.00
68994;BME280;56054;50.968;5.816;2023-02-22T17:57:56;100410.34;;;9.86;100.00
68994;BME280;56054;50.968;5.816;2023-02-22T18:01:03;100419.03;;;9.86;100.00
68994;BME280;56054;50.968;5.816;2023-02-22T18:04:16;100409.47;;;9.85;100.00
68994;BME280;56054;50.968;5.816;2023-02-22T18:07:22;100415.25;;;9.81;100.00
68994;BME280;56054;50.968;5.816;2023-02-22T18:10:29;100419.84;;;9.85;100.00
68994;BME280;56054;50.968;5.816;2023-02-22T18:13:37;100411.25;;;9.86;100.00
68994;BME280;56054;50.968;5.816;2023-02-22T18:16:45;100411.09;;;9.70;100.00
68994;BME280;56054;50.968;5.816;2023-02-22T18:20:01;100421.13;;;9.64;100.00
68994;BME280;56054;50.968;5.816;2023-02-22T18:23:15;100417.00;;;9.68;100.00
68994;BME280;56054;50.968;5.816;2023-02-22T18:26:23;100420.53;;;9.68;100.00
68994;BME280;56054;50.968;5.816;2023-02-22T18:29:32;100418.00;;;9.70;100.00
68994;BME280;56054;50.968;5.816;2023-02-22T18:32:39;100417.81;;;9.67;100.00
68994;BME280;56054;50.968;5.816;2023-02-22T18:35:52;100410.91;;;9.67;100.00
68994;BME280;56054;50.968;5.816;2023-02-22T18:39:01;100411.53;;;9.63;100.00
68994;BME280;56054;50.968;5.816;2023-02-22T18:42:11;100421.91;;;9.63;100.00
68994;BME280;56054;50.968;5.816;2023-02-22T18:45:18;100414.81;;;9.60;100.00
68994;BME280;56054;50.968;5.816;2023-02-22T18:48:26;100415.31;;;9.68;100.00
68994;BME280;56054;50.968;5.816;2023-02-22T18:51:33;100420.06;;;9.75;100.00
68994;BME280;56054;50.968;5.816;2023-02-22T18:54:42;100411.09;;;9.70;100.00
68994;BME280;56054;50.968;5.816;2023-02-22T18:57:49;100419.88;;;9.72;100.00
68994;BME280;56054;50.968;5.816;2023-02-22T19:00:56;100417.09;;;9.69;100.00
68994;BME280;56054;50.968;5.816;2023-02-22T19:04:07;100414.13;;;9.63;100.00
68994;BME280;56054;50.968;5.816;2023-02-22T19:07:14;100409.34;;;9.56;100.00
68994;BME280;56054;50.968;5.816;2023-02-22T19:10:21;100418.72;;;9.67;100.00
68994;BME280;56054;50.968;5.816;2023-02-22T19:13:30;100416.59;;;9.47;100.00